Ahar, Iran

11:11 PM IRST on October 25, 2014 (GMT +0330)
Tabriz International | Change Station
CLOSE
Current Station
Airport
Location: Tabriz,
Elevation: 4459 ft
Nearby Weather Stations

Elev 4459 ft 38.13 °N, 46.24 °E | Updated 51 minutes ago

Partly Cloudy
Partly Cloudy
50 °F
Feels Like 50 °F
N
7
Wind Variable Wind from NE

Today
High -- | Low -- °F
--% Chance of Precip.
Yesterday
High -- | Low -- °F
Precip. -- in
6:40 AM 5:30 PM
Waxing Crescent, 4% visible
Pressure 30.09 in
Visibility 6.2 miles
Clouds Few 3500 ft
Dew Point 43 °F
Humidity 76%
Rainfall 0.00 in
Snow Depth Not available.
UV 0 out of 12
Pollen Not available.
Air Quality Not available.
Flu Activity Not available.
METAR OITT 251850Z 04006KT 9999 FEW035 10/06 Q1019 A3010 NOSIG

More Conditions Fewer Conditions

Pressure 30.09 in
Visibility 6.2 miles
Clouds Few 3500 ft
Dew Point 43 °F
Humidity 76%
Rainfall 0.00 in
Snow Depth Not available.
UV 0 out of 12
Pollen Not available.
Air Quality Not available.
Flu Activity Not available.
METAR OITT 251850Z 04006KT 9999 FEW035 10/06 Q1019 A3010 NOSIG

More Conditions Fewer Conditions

10-Day Weather Forecast

Almanac

Astronomy

Oct. 25, 2014 Rise Set
Actual Time 6:40 AM IRST 5:30 PM IRST
Civil Twilight 6:13 AM IRST 5:57 PM IRST
Nautical Twilight 5:42 AM IRST 6:28 PM IRST
Astronomical Twilight 5:11 AM IRST 6:59 PM IRST
Moon 7:55 AM IRST 6:37 PM IRST
Length of Visible Light 11h 44m
Length of Day
10h 50m
Tomorrow will be 2m 17s shorter.
Waxing Crescent, 4% of the Moon is Illuminated
Today
Waxing Crescent
Oct 30
First Quarter
Nov 6
Full
Nov 14
Last Quarter
Nov 22
New

Today's Extremes

Country Highs Country Lows

Community

WunderPhotos

Upload Photos

1,764,972 photos uploaded!

Nearby

Snow Depth

Not available.

Earthquake Activity

City Distance Mag. Time & Date
No recent earthquake activity has been reported nearby.
Minimum magnitude displayed is 2.5.

Coastal Water Temperatures

Place Temperature
No Stations Reporting

Nearby Weather Stations